sensor_id;sensor_type;location;lat;lon;timestamp;P1;durP1;ratioP1;P2;durP2;ratioP2
32365;SDS011;18837;46.832;16.838;2023-01-09T00:00:51;2.90;;;2.20;;
32365;SDS011;18837;46.832;16.838;2023-01-09T00:03:26;2.47;;;1.93;;
32365;SDS011;18837;46.832;16.838;2023-01-09T00:05:53;3.13;;;2.37;;
32365;SDS011;18837;46.832;16.838;2023-01-09T00:08:19;3.33;;;2.60;;
32365;SDS011;18837;46.832;16.838;2023-01-09T00:10:45;2.33;;;1.77;;
32365;SDS011;18837;46.832;16.838;2023-01-09T00:13:13;4.00;;;2.07;;
32365;SDS011;18837;46.832;16.838;2023-01-09T00:15:39;2.77;;;2.10;;
32365;SDS011;18837;46.832;16.838;2023-01-09T00:18:08;3.00;;;1.90;;
32365;SDS011;18837;46.832;16.838;2023-01-09T00:20:34;3.23;;;2.30;;
32365;SDS011;18837;46.832;16.838;2023-01-09T00:23:14;2.10;;;1.90;;
32365;SDS011;18837;46.832;16.838;2023-01-09T00:25:40;3.03;;;2.20;;
32365;SDS011;18837;46.832;16.838;2023-01-09T00:28:06;2.67;;;2.00;;
32365;SDS011;18837;46.832;16.838;2023-01-09T00:30:31;2.27;;;2.07;;
32365;SDS011;18837;46.832;16.838;2023-01-09T00:32:57;2.27;;;2.00;;
32365;SDS011;18837;46.832;16.838;2023-01-09T00:35:24;3.30;;;2.30;;
32365;SDS011;18837;46.832;16.838;2023-01-09T00:43:30;3.13;;;2.27;;
32365;SDS011;18837;46.832;16.838;2023-01-09T00:45:59;2.30;;;1.90;;
32365;SDS011;18837;46.832;16.838;2023-01-09T00:48:29;3.97;;;2.33;;
32365;SDS011;18837;46.832;16.838;2023-01-09T00:50:57;3.27;;;2.27;;
32365;SDS011;18837;46.832;16.838;2023-01-09T00:53:24;2.30;;;2.10;;
32365;SDS011;18837;46.832;16.838;2023-01-09T00:55:53;2.40;;;2.17;;
32365;SDS011;18837;46.832;16.838;2023-01-09T00:58:40;2.50;;;2.20;;
32365;SDS011;18837;46.832;16.838;2023-01-09T01:01:05;2.70;;;2.20;;
32365;SDS011;18837;46.832;16.838;2023-01-09T01:03:31;3.50;;;2.57;;
32365;SDS011;18837;46.832;16.838;2023-01-09T01:05:57;2.10;;;1.90;;
32365;SDS011;18837;46.832;16.838;2023-01-09T01:08:43;2.33;;;2.13;;
32365;SDS011;18837;46.832;16.838;2023-01-09T01:11:09;3.33;;;2.07;;
32365;SDS011;18837;46.832;16.838;2023-01-09T01:13:38;3.40;;;2.30;;
32365;SDS011;18837;46.832;16.838;2023-01-09T01:16:07;2.57;;;1.97;;
32365;SDS011;18837;46.832;16.838;2023-01-09T01:18:46;3.53;;;2.30;;
32365;SDS011;18837;46.832;16.838;2023-01-09T01:21:13;2.53;;;2.03;;
32365;SDS011;18837;46.832;16.838;2023-01-09T01:23:39;1.97;;;1.77;;
32365;SDS011;18837;46.832;16.838;2023-01-09T01:26:12;3.63;;;2.10;;
32365;SDS011;18837;46.832;16.838;2023-01-09T01:28:39;2.50;;;2.30;;
32365;SDS011;18837;46.832;16.838;2023-01-09T01:31:07;3.17;;;2.07;;
32365;SDS011;18837;46.832;16.838;2023-01-09T01:33:43;2.30;;;1.90;;
32365;SDS011;18837;46.832;16.838;2023-01-09T01:36:09;2.50;;;2.30;;
32365;SDS011;18837;46.832;16.838;2023-01-09T01:38:35;4.17;;;2.10;;
32365;SDS011;18837;46.832;16.838;2023-01-09T01:41:01;2.80;;;2.30;;
32365;SDS011;18837;46.832;16.838;2023-01-09T01:43:29;3.07;;;2.20;;
32365;SDS011;18837;46.832;16.838;2023-01-09T01:46:15;3.17;;;2.37;;
32365;SDS011;18837;46.832;16.838;2023-01-09T01:52:08;2.57;;;2.30;;
32365;SDS011;18837;46.832;16.838;2023-01-09T01:54:34;3.30;;;2.37;;
32365;SDS011;18837;46.832;16.838;2023-01-09T01:57:01;2.53;;;2.30;;
32365;SDS011;18837;46.832;16.838;2023-01-09T02:01:59;3.43;;;2.50;;
32365;SDS011;18837;46.832;16.838;2023-01-09T02:04:26;2.37;;;2.17;;
32365;SDS011;18837;46.832;16.838;2023-01-09T02:06:53;2.50;;;2.30;;
32365;SDS011;18837;46.832;16.838;2023-01-09T02:09:20;3.00;;;2.27;;
32365;SDS011;18837;46.832;16.838;2023-01-09T02:11:48;3.43;;;2.67;;
32365;SDS011;18837;46.832;16.838;2023-01-09T02:14:18;2.87;;;1.90;;
32365;SDS011;18837;46.832;16.838;2023-01-09T02:39:51;3.17;;;2.30;;
32365;SDS011;18837;46.832;16.838;2023-01-09T02:42:26;2.70;;;2.10;;
32365;SDS011;18837;46.832;16.838;2023-01-09T02:44:52;2.80;;;2.50;;
32365;SDS011;18837;46.832;16.838;2023-01-09T03:02:06;3.30;;;2.43;;
32365;SDS011;18837;46.832;16.838;2023-01-09T03:07:23;3.40;;;2.23;;
32365;SDS011;18837;46.832;16.838;2023-01-09T03:12:40;2.67;;;2.27;;
32365;SDS011;18837;46.832;16.838;2023-01-09T03:15:16;2.87;;;2.53;;
32365;SDS011;18837;46.832;16.838;2023-01-09T03:17:44;2.33;;;2.13;;
32365;SDS011;18837;46.832;16.838;2023-01-09T03:20:12;2.87;;;2.47;;
32365;SDS011;18837;46.832;16.838;2023-01-09T03:23:00;2.70;;;2.30;;
32365;SDS011;18837;46.832;16.838;2023-01-09T03:25:29;3.47;;;2.27;;
32365;SDS011;18837;46.832;16.838;2023-01-09T03:27:59;2.20;;;2.00;;
32365;SDS011;18837;46.832;16.838;2023-01-09T03:33:39;2.50;;;2.27;;
32365;SDS011;18837;46.832;16.838;2023-01-09T03:36:11;2.60;;;2.20;;
32365;SDS011;18837;46.832;16.838;2023-01-09T03:38:38;2.60;;;2.30;;
32365;SDS011;18837;46.832;16.838;2023-01-09T03:41:03;2.40;;;2.20;;
32365;SDS011;18837;46.832;16.838;2023-01-09T03:43:30;2.37;;;2.17;;
32365;SDS011;18837;46.832;16.838;2023-01-09T03:45:56;3.43;;;2.30;;
32365;SDS011;18837;46.832;16.838;2023-01-09T03:48:22;2.37;;;2.17;;
32365;SDS011;18837;46.832;16.838;2023-01-09T03:50:57;2.27;;;2.03;;
32365;SDS011;18837;46.832;16.838;2023-01-09T03:53:24;3.03;;;2.73;;
32365;SDS011;18837;46.832;16.838;2023-01-09T03:55:51;3.20;;;2.90;;
32365;SDS011;18837;46.832;16.838;2023-01-09T03:58:19;2.90;;;2.60;;
32365;SDS011;18837;46.832;16.838;2023-01-09T04:00:46;3.17;;;2.53;;
32365;SDS011;18837;46.832;16.838;2023-01-09T04:03:15;2.63;;;2.40;;
32365;SDS011;18837;46.832;16.838;2023-01-09T04:08:44;3.77;;;2.73;;
32365;SDS011;18837;46.832;16.838;2023-01-09T04:11:10;3.60;;;2.73;;
32365;SDS011;18837;46.832;16.838;2023-01-09T04:13:36;3.43;;;2.93;;
32365;SDS011;18837;46.832;16.838;2023-01-09T04:16:02;3.60;;;2.80;;
32365;SDS011;18837;46.832;16.838;2023-01-09T04:18:28;3.97;;;2.53;;
32365;SDS011;18837;46.832;16.838;2023-01-09T04:20:54;3.33;;;2.70;;
32365;SDS011;18837;46.832;16.838;2023-01-09T04:23:20;2.77;;;2.50;;
32365;SDS011;18837;46.832;16.838;2023-01-09T04:25:55;2.60;;;2.33;;
32365;SDS011;18837;46.832;16.838;2023-01-09T04:28:21;3.23;;;2.77;;
32365;SDS011;18837;46.832;16.838;2023-01-09T04:30:46;3.03;;;2.60;;
32365;SDS011;18837;46.832;16.838;2023-01-09T04:33:12;3.57;;;3.10;;
32365;SDS011;18837;46.832;16.838;2023-01-09T04:35:38;3.40;;;2.60;;
32365;SDS011;18837;46.832;16.838;2023-01-09T04:38:04;3.33;;;2.77;;
32365;SDS011;18837;46.832;16.838;2023-01-09T04:46:09;3.23;;;2.70;;
32365;SDS011;18837;46.832;16.838;2023-01-09T04:48:35;3.50;;;2.70;;
32365;SDS011;18837;46.832;16.838;2023-01-09T04:51:00;3.00;;;2.53;;
32365;SDS011;18837;46.832;16.838;2023-01-09T04:53:26;3.27;;;2.40;;
32365;SDS011;18837;46.832;16.838;2023-01-09T04:55:52;3.43;;;2.70;;
32365;SDS011;18837;46.832;16.838;2023-01-09T04:58:26;3.23;;;2.87;;
32365;SDS011;18837;46.832;16.838;2023-01-09T05:00:52;2.93;;;2.63;;
32365;SDS011;18837;46.832;16.838;2023-01-09T05:03:18;2.97;;;2.50;;
32365;SDS011;18837;46.832;16.838;2023-01-09T05:05:43;3.03;;;2.40;;
32365;SDS011;18837;46.832;16.838;2023-01-09T05:08:09;2.40;;;2.20;;
32365;SDS011;18837;46.832;16.838;2023-01-09T05:10:35;3.03;;;2.50;;
32365;SDS011;18837;46.832;16.838;2023-01-09T05:13:00;2.60;;;2.40;;
32365;SDS011;18837;46.832;16.838;2023-01-09T05:15:41;2.87;;;2.47;;
32365;SDS011;18837;46.832;16.838;2023-01-09T05:18:22;2.90;;;2.50;;
32365;SDS011;18837;46.832;16.838;2023-01-09T05:20:48;3.40;;;3.10;;
32365;SDS011;18837;46.832;16.838;2023-01-09T05:23:14;3.23;;;2.50;;
32365;SDS011;18837;46.832;16.838;2023-01-09T05:25:39;3.30;;;2.70;;
32365;SDS011;18837;46.832;16.838;2023-01-09T05:28:05;3.00;;;2.43;;
32365;SDS011;18837;46.832;16.838;2023-01-09T05:30:31;3.13;;;2.70;;
32365;SDS011;18837;46.832;16.838;2023-01-09T05:33:08;3.37;;;2.70;;
32365;SDS011;18837;46.832;16.838;2023-01-09T05:35:33;3.23;;;2.53;;
32365;SDS011;18837;46.832;16.838;2023-01-09T05:37:59;3.50;;;2.80;;
32365;SDS011;18837;46.832;16.838;2023-01-09T05:40:25;3.87;;;2.40;;
32365;SDS011;18837;46.832;16.838;2023-01-09T05:42:51;2.40;;;2.17;;
32365;SDS011;18837;46.832;16.838;2023-01-09T05:45:16;3.63;;;2.50;;
32365;SDS011;18837;46.832;16.838;2023-01-09T05:47:43;2.90;;;2.40;;
32365;SDS011;18837;46.832;16.838;2023-01-09T05:50:18;3.53;;;2.90;;
32365;SDS011;18837;46.832;16.838;2023-01-09T05:52:47;2.97;;;2.50;;
32365;SDS011;18837;46.832;16.838;2023-01-09T05:55:12;3.17;;;2.50;;
32365;SDS011;18837;46.832;16.838;2023-01-09T05:57:38;2.73;;;2.27;;
32365;SDS011;18837;46.832;16.838;2023-01-09T06:00:05;2.80;;;2.50;;
32365;SDS011;18837;46.832;16.838;2023-01-09T06:02:31;4.20;;;2.70;;
32365;SDS011;18837;46.832;16.838;2023-01-09T06:04:57;2.87;;;2.57;;
32365;SDS011;18837;46.832;16.838;2023-01-09T06:07:23;3.30;;;2.90;;
32365;SDS011;18837;46.832;16.838;2023-01-09T06:09:48;3.20;;;2.80;;
32365;SDS011;18837;46.832;16.838;2023-01-09T06:12:14;3.00;;;2.70;;
32365;SDS011;18837;46.832;16.838;2023-01-09T06:14:40;4.00;;;2.63;;
32365;SDS011;18837;46.832;16.838;2023-01-09T06:17:05;3.13;;;2.80;;
32365;SDS011;18837;46.832;16.838;2023-01-09T06:19:31;3.07;;;2.50;;
32365;SDS011;18837;46.832;16.838;2023-01-09T06:21:57;3.13;;;2.43;;
32365;SDS011;18837;46.832;16.838;2023-01-09T06:24:23;3.07;;;2.77;;
32365;SDS011;18837;46.832;16.838;2023-01-09T06:26:49;2.97;;;2.53;;
32365;SDS011;18837;46.832;16.838;2023-01-09T06:29:15;3.60;;;2.90;;
32365;SDS011;18837;46.832;16.838;2023-01-09T06:31:41;3.23;;;2.73;;
32365;SDS011;18837;46.832;16.838;2023-01-09T06:34:06;3.43;;;2.27;;
32365;SDS011;18837;46.832;16.838;2023-01-09T06:36:33;3.60;;;2.97;;
32365;SDS011;18837;46.832;16.838;2023-01-09T06:38:58;3.87;;;3.20;;
32365;SDS011;18837;46.832;16.838;2023-01-09T06:41:24;3.10;;;2.80;;
32365;SDS011;18837;46.832;16.838;2023-01-09T06:43:50;3.60;;;2.53;;
32365;SDS011;18837;46.832;16.838;2023-01-09T06:46:16;3.50;;;2.60;;
32365;SDS011;18837;46.832;16.838;2023-01-09T06:48:42;3.23;;;2.90;;
32365;SDS011;18837;46.832;16.838;2023-01-09T06:51:08;4.17;;;3.17;;
32365;SDS011;18837;46.832;16.838;2023-01-09T06:53:39;4.00;;;3.07;;
32365;SDS011;18837;46.832;16.838;2023-01-09T06:56:05;3.00;;;2.70;;
32365;SDS011;18837;46.832;16.838;2023-01-09T06:58:30;3.33;;;2.97;;
32365;SDS011;18837;46.832;16.838;2023-01-09T07:00:59;3.10;;;2.77;;
32365;SDS011;18837;46.832;16.838;2023-01-09T07:03:25;3.47;;;2.80;;
32365;SDS011;18837;46.832;16.838;2023-01-09T07:05:51;3.93;;;3.23;;
32365;SDS011;18837;46.832;16.838;2023-01-09T07:14:00;4.23;;;3.00;;
32365;SDS011;18837;46.832;16.838;2023-01-09T07:16:26;4.73;;;3.70;;
32365;SDS011;18837;46.832;16.838;2023-01-09T07:18:52;4.03;;;3.33;;
32365;SDS011;18837;46.832;16.838;2023-01-09T07:21:18;5.30;;;3.70;;
32365;SDS011;18837;46.832;16.838;2023-01-09T07:23:44;4.10;;;3.40;;
32365;SDS011;18837;46.832;16.838;2023-01-09T07:26:10;2.97;;;2.67;;
32365;SDS011;18837;46.832;16.838;2023-01-09T07:28:41;3.00;;;2.67;;
32365;SDS011;18837;46.832;16.838;2023-01-09T07:31:07;3.50;;;3.03;;
32365;SDS011;18837;46.832;16.838;2023-01-09T07:33:33;3.40;;;2.93;;
32365;SDS011;18837;46.832;16.838;2023-01-09T07:35:59;4.27;;;3.27;;
32365;SDS011;18837;46.832;16.838;2023-01-09T07:38:25;3.60;;;3.27;;
32365;SDS011;18837;46.832;16.838;2023-01-09T07:40:51;4.40;;;3.30;;
32365;SDS011;18837;46.832;16.838;2023-01-09T07:46:15;4.40;;;3.23;;
32365;SDS011;18837;46.832;16.838;2023-01-09T07:48:41;3.57;;;3.13;;
32365;SDS011;18837;46.832;16.838;2023-01-09T07:51:06;4.60;;;3.03;;
32365;SDS011;18837;46.832;16.838;2023-01-09T07:53:34;3.40;;;3.10;;
32365;SDS011;18837;46.832;16.838;2023-01-09T07:56:00;3.93;;;2.97;;
32365;SDS011;18837;46.832;16.838;2023-01-09T07:58:25;3.90;;;3.27;;
32365;SDS011;18837;46.832;16.838;2023-01-09T08:00:51;5.13;;;3.20;;
32365;SDS011;18837;46.832;16.838;2023-01-09T08:03:20;4.73;;;3.50;;
32365;SDS011;18837;46.832;16.838;2023-01-09T08:05:46;4.13;;;3.23;;
32365;SDS011;18837;46.832;16.838;2023-01-09T08:08:11;5.03;;;3.47;;
32365;SDS011;18837;46.832;16.838;2023-01-09T08:10:38;4.20;;;3.37;;
32365;SDS011;18837;46.832;16.838;2023-01-09T08:13:04;3.93;;;3.43;;
32365;SDS011;18837;46.832;16.838;2023-01-09T08:15:30;3.63;;;2.90;;
32365;SDS011;18837;46.832;16.838;2023-01-09T08:20:56;3.43;;;3.10;;
32365;SDS011;18837;46.832;16.838;2023-01-09T08:23:22;4.07;;;3.50;;
32365;SDS011;18837;46.832;16.838;2023-01-09T08:25:48;3.53;;;2.97;;
32365;SDS011;18837;46.832;16.838;2023-01-09T08:28:14;3.73;;;3.30;;
32365;SDS011;18837;46.832;16.838;2023-01-09T08:30:40;7.70;;;3.50;;
32365;SDS011;18837;46.832;16.838;2023-01-09T08:33:05;5.20;;;3.43;;
32365;SDS011;18837;46.832;16.838;2023-01-09T08:35:46;4.40;;;3.43;;
32365;SDS011;18837;46.832;16.838;2023-01-09T08:38:12;3.70;;;3.10;;
32365;SDS011;18837;46.832;16.838;2023-01-09T08:40:38;4.27;;;3.47;;
32365;SDS011;18837;46.832;16.838;2023-01-09T08:43:04;4.33;;;3.50;;
32365;SDS011;18837;46.832;16.838;2023-01-09T08:45:49;3.83;;;3.30;;
32365;SDS011;18837;46.832;16.838;2023-01-09T08:48:33;3.87;;;3.17;;
32365;SDS011;18837;46.832;16.838;2023-01-09T08:50:59;3.47;;;3.17;;
32365;SDS011;18837;46.832;16.838;2023-01-09T08:53:37;3.40;;;2.93;;
32365;SDS011;18837;46.832;16.838;2023-01-09T08:56:14;3.90;;;3.50;;
32365;SDS011;18837;46.832;16.838;2023-01-09T08:58:40;4.80;;;3.43;;
32365;SDS011;18837;46.832;16.838;2023-01-09T09:01:06;4.10;;;3.63;;
32365;SDS011;18837;46.832;16.838;2023-01-09T09:03:32;4.73;;;3.57;;
32365;SDS011;18837;46.832;16.838;2023-01-09T09:05:58;4.40;;;3.40;;
32365;SDS011;18837;46.832;16.838;2023-01-09T09:08:24;3.77;;;3.33;;
32365;SDS011;18837;46.832;16.838;2023-01-09T09:11:04;4.93;;;3.40;;
32365;SDS011;18837;46.832;16.838;2023-01-09T09:13:30;3.67;;;3.10;;
32365;SDS011;18837;46.832;16.838;2023-01-09T09:15:56;3.37;;;3.07;;
32365;SDS011;18837;46.832;16.838;2023-01-09T09:18:22;4.13;;;3.37;;
32365;SDS011;18837;46.832;16.838;2023-01-09T09:20:48;4.50;;;3.43;;
32365;SDS011;18837;46.832;16.838;2023-01-09T09:23:14;3.77;;;3.27;;
32365;SDS011;18837;46.832;16.838;2023-01-09T09:25:39;3.23;;;2.80;;
32365;SDS011;18837;46.832;16.838;2023-01-09T09:31:10;4.40;;;3.40;;
32365;SDS011;18837;46.832;16.838;2023-01-09T09:33:36;3.37;;;3.07;;
32365;SDS011;18837;46.832;16.838;2023-01-09T09:36:01;4.13;;;3.73;;
32365;SDS011;18837;46.832;16.838;2023-01-09T09:38:27;3.87;;;3.40;;
32365;SDS011;18837;46.832;16.838;2023-01-09T09:48:55;3.50;;;3.20;;
32365;SDS011;18837;46.832;16.838;2023-01-09T09:51:54;4.50;;;3.40;;
32365;SDS011;18837;46.832;16.838;2023-01-09T09:54:18;3.83;;;3.43;;
32365;SDS011;18837;46.832;16.838;2023-01-09T09:56:53;4.00;;;3.60;;
32365;SDS011;18837;46.832;16.838;2023-01-09T09:59:28;5.17;;;3.70;;
32365;SDS011;18837;46.832;16.838;2023-01-09T10:05:43;3.97;;;3.50;;
32365;SDS011;18837;46.832;16.838;2023-01-09T10:08:04;4.43;;;3.73;;
32365;SDS011;18837;46.832;16.838;2023-01-09T10:10:39;4.33;;;3.60;;
32365;SDS011;18837;46.832;16.838;2023-01-09T10:13:12;3.97;;;3.57;;
32365;SDS011;18837;46.832;16.838;2023-01-09T10:16:06;4.60;;;3.60;;
32365;SDS011;18837;46.832;16.838;2023-01-09T10:21:44;5.00;;;3.73;;
32365;SDS011;18837;46.832;16.838;2023-01-09T10:24:46;4.00;;;3.60;;
32365;SDS011;18837;46.832;16.838;2023-01-09T10:39:17;5.37;;;4.47;;
32365;SDS011;18837;46.832;16.838;2023-01-09T10:41:53;5.07;;;4.23;;
32365;SDS011;18837;46.832;16.838;2023-01-09T10:46:51;6.30;;;4.67;;
32365;SDS011;18837;46.832;16.838;2023-01-09T10:49:18;7.10;;;4.93;;
32365;SDS011;18837;46.832;16.838;2023-01-09T10:51:47;6.30;;;4.90;;
32365;SDS011;18837;46.832;16.838;2023-01-09T10:54:24;5.57;;;4.47;;
32365;SDS011;18837;46.832;16.838;2023-01-09T10:56:53;5.60;;;4.83;;
32365;SDS011;18837;46.832;16.838;2023-01-09T10:59:21;6.80;;;4.67;;
32365;SDS011;18837;46.832;16.838;2023-01-09T11:01:48;5.77;;;4.57;;
32365;SDS011;18837;46.832;16.838;2023-01-09T11:04:28;5.50;;;4.30;;
32365;SDS011;18837;46.832;16.838;2023-01-09T11:06:59;5.63;;;5.03;;
32365;SDS011;18837;46.832;16.838;2023-01-09T11:16:23;5.90;;;4.53;;
32365;SDS011;18837;46.832;16.838;2023-01-09T11:21:31;6.10;;;5.30;;
32365;SDS011;18837;46.832;16.838;2023-01-09T11:26:51;7.67;;;5.37;;
32365;SDS011;18837;46.832;16.838;2023-01-09T11:29:23;5.90;;;5.30;;
32365;SDS011;18837;46.832;16.838;2023-01-09T11:31:50;7.27;;;5.60;;
32365;SDS011;18837;46.832;16.838;2023-01-09T11:34:24;7.07;;;5.60;;
32365;SDS011;18837;46.832;16.838;2023-01-09T11:37:07;7.50;;;6.17;;
32365;SDS011;18837;46.832;16.838;2023-01-09T11:39:38;8.23;;;6.47;;
32365;SDS011;18837;46.832;16.838;2023-01-09T11:42:20;7.53;;;6.20;;
32365;SDS011;18837;46.832;16.838;2023-01-09T11:50:55;7.47;;;5.83;;
32365;SDS011;18837;46.832;16.838;2023-01-09T11:53:23;6.80;;;5.60;;
32365;SDS011;18837;46.832;16.838;2023-01-09T11:55:59;8.07;;;5.90;;
32365;SDS011;18837;46.832;16.838;2023-01-09T11:58:29;8.60;;;6.07;;
32365;SDS011;18837;46.832;16.838;2023-01-09T12:03:58;7.37;;;5.37;;
32365;SDS011;18837;46.832;16.838;2023-01-09T12:30:50;7.37;;;6.10;;
32365;SDS011;18837;46.832;16.838;2023-01-09T12:33:40;6.57;;;5.37;;
32365;SDS011;18837;46.832;16.838;2023-01-09T12:50:53;7.13;;;6.03;;
32365;SDS011;18837;46.832;16.838;2023-01-09T12:57:08;6.57;;;5.83;;
32365;SDS011;18837;46.832;16.838;2023-01-09T13:00:15;8.03;;;6.33;;
32365;SDS011;18837;46.832;16.838;2023-01-09T13:03:08;7.53;;;5.80;;
32365;SDS011;18837;46.832;16.838;2023-01-09T13:05:35;7.40;;;6.00;;
32365;SDS011;18837;46.832;16.838;2023-01-09T13:08:29;6.53;;;5.73;;
32365;SDS011;18837;46.832;16.838;2023-01-09T13:11:04;7.57;;;6.20;;
32365;SDS011;18837;46.832;16.838;2023-01-09T13:13:42;7.57;;;6.00;;
32365;SDS011;18837;46.832;16.838;2023-01-09T13:16:23;9.00;;;7.00;;
32365;SDS011;18837;46.832;16.838;2023-01-09T13:21:44;6.97;;;6.07;;
32365;SDS011;18837;46.832;16.838;2023-01-09T13:26:51;7.57;;;6.50;;
32365;SDS011;18837;46.832;16.838;2023-01-09T13:35:33;8.43;;;6.10;;
32365;SDS011;18837;46.832;16.838;2023-01-09T13:38:13;7.77;;;6.47;;
32365;SDS011;18837;46.832;16.838;2023-01-09T13:40:42;7.37;;;6.60;;
32365;SDS011;18837;46.832;16.838;2023-01-09T13:43:08;8.80;;;6.80;;
32365;SDS011;18837;46.832;16.838;2023-01-09T13:45:34;7.43;;;6.50;;
32365;SDS011;18837;46.832;16.838;2023-01-09T13:54:08;7.13;;;6.43;;
32365;SDS011;18837;46.832;16.838;2023-01-09T13:59:37;8.57;;;6.47;;
32365;SDS011;18837;46.832;16.838;2023-01-09T14:02:07;7.57;;;6.70;;
32365;SDS011;18837;46.832;16.838;2023-01-09T14:08:16;8.30;;;6.80;;
32365;SDS011;18837;46.832;16.838;2023-01-09T14:10:46;8.80;;;6.90;;
32365;SDS011;18837;46.832;16.838;2023-01-09T14:13:42;7.17;;;6.17;;
32365;SDS011;18837;46.832;16.838;2023-01-09T14:16:17;6.83;;;5.57;;
32365;SDS011;18837;46.832;16.838;2023-01-09T14:19:01;7.77;;;6.10;;
32365;SDS011;18837;46.832;16.838;2023-01-09T14:22:03;7.77;;;6.33;;
32365;SDS011;18837;46.832;16.838;2023-01-09T14:32:56;5.73;;;5.13;;
32365;SDS011;18837;46.832;16.838;2023-01-09T14:41:44;7.03;;;5.20;;
32365;SDS011;18837;46.832;16.838;2023-01-09T14:44:48;5.60;;;5.00;;
32365;SDS011;18837;46.832;16.838;2023-01-09T14:47:18;6.70;;;5.23;;
32365;SDS011;18837;46.832;16.838;2023-01-09T14:52:50;6.40;;;5.40;;
32365;SDS011;18837;46.832;16.838;2023-01-09T14:58:39;8.20;;;5.57;;
32365;SDS011;18837;46.832;16.838;2023-01-09T15:01:05;7.80;;;5.63;;
32365;SDS011;18837;46.832;16.838;2023-01-09T15:06:19;8.77;;;6.37;;
32365;SDS011;18837;46.832;16.838;2023-01-09T15:08:53;8.97;;;6.10;;
32365;SDS011;18837;46.832;16.838;2023-01-09T15:11:35;9.57;;;6.10;;
32365;SDS011;18837;46.832;16.838;2023-01-09T15:19:58;8.80;;;5.93;;
32365;SDS011;18837;46.832;16.838;2023-01-09T15:25:22;8.90;;;5.70;;
32365;SDS011;18837;46.832;16.838;2023-01-09T15:27:52;8.97;;;5.27;;
32365;SDS011;18837;46.832;16.838;2023-01-09T15:30:29;7.17;;;5.40;;
32365;SDS011;18837;46.832;16.838;2023-01-09T15:32:59;8.47;;;5.40;;
32365;SDS011;18837;46.832;16.838;2023-01-09T15:35:27;8.03;;;5.20;;
32365;SDS011;18837;46.832;16.838;2023-01-09T15:37:53;8.30;;;4.90;;
32365;SDS011;18837;46.832;16.838;2023-01-09T15:40:26;6.97;;;5.13;;
32365;SDS011;18837;46.832;16.838;2023-01-09T15:42:57;6.80;;;4.90;;
32365;SDS011;18837;46.832;16.838;2023-01-09T15:51:24;6.47;;;4.50;;
32365;SDS011;18837;46.832;16.838;2023-01-09T15:53:51;5.03;;;4.37;;
32365;SDS011;18837;46.832;16.838;2023-01-09T15:56:25;6.37;;;4.50;;
32365;SDS011;18837;46.832;16.838;2023-01-09T15:58:55;5.23;;;3.90;;
32365;SDS011;18837;46.832;16.838;2023-01-09T16:01:29;4.40;;;3.67;;
32365;SDS011;18837;46.832;16.838;2023-01-09T16:06:36;5.87;;;3.93;;
32365;SDS011;18837;46.832;16.838;2023-01-09T16:09:30;5.23;;;3.97;;
32365;SDS011;18837;46.832;16.838;2023-01-09T16:11:59;4.40;;;3.80;;
32365;SDS011;18837;46.832;16.838;2023-01-09T16:16:58;4.50;;;3.37;;
32365;SDS011;18837;46.832;16.838;2023-01-09T16:19:31;4.23;;;3.23;;
32365;SDS011;18837;46.832;16.838;2023-01-09T16:28:07;4.03;;;3.10;;
32365;SDS011;18837;46.832;16.838;2023-01-09T16:30:50;3.90;;;3.10;;
32365;SDS011;18837;46.832;16.838;2023-01-09T16:33:27;3.87;;;2.70;;
32365;SDS011;18837;46.832;16.838;2023-01-09T16:35:54;3.83;;;3.03;;
32365;SDS011;18837;46.832;16.838;2023-01-09T16:38:22;3.67;;;3.03;;
32365;SDS011;18837;46.832;16.838;2023-01-09T16:41:12;3.97;;;3.37;;
32365;SDS011;18837;46.832;16.838;2023-01-09T16:44:01;3.83;;;2.87;;
32365;SDS011;18837;46.832;16.838;2023-01-09T16:46:31;3.53;;;2.93;;
32365;SDS011;18837;46.832;16.838;2023-01-09T16:48:59;4.33;;;3.50;;
32365;SDS011;18837;46.832;16.838;2023-01-09T16:51:25;3.53;;;2.93;;
32365;SDS011;18837;46.832;16.838;2023-01-09T16:53:53;3.07;;;2.73;;
32365;SDS011;18837;46.832;16.838;2023-01-09T16:59:25;3.30;;;2.63;;
32365;SDS011;18837;46.832;16.838;2023-01-09T17:01:52;4.10;;;3.10;;
32365;SDS011;18837;46.832;16.838;2023-01-09T17:04:19;4.27;;;3.40;;
32365;SDS011;18837;46.832;16.838;2023-01-09T17:06:45;4.07;;;3.40;;
32365;SDS011;18837;46.832;16.838;2023-01-09T17:09:14;3.90;;;2.93;;
32365;SDS011;18837;46.832;16.838;2023-01-09T17:11:41;3.93;;;3.00;;
32365;SDS011;18837;46.832;16.838;2023-01-09T17:14:08;3.80;;;2.90;;
32365;SDS011;18837;46.832;16.838;2023-01-09T17:16:36;2.87;;;2.30;;
32365;SDS011;18837;46.832;16.838;2023-01-09T17:19:05;2.73;;;2.40;;
32365;SDS011;18837;46.832;16.838;2023-01-09T17:21:31;2.93;;;2.53;;
32365;SDS011;18837;46.832;16.838;2023-01-09T17:23:58;4.30;;;2.40;;
32365;SDS011;18837;46.832;16.838;2023-01-09T17:26:43;3.00;;;2.43;;
32365;SDS011;18837;46.832;16.838;2023-01-09T17:29:30;3.47;;;2.20;;
32365;SDS011;18837;46.832;16.838;2023-01-09T17:31:59;3.10;;;2.07;;
32365;SDS011;18837;46.832;16.838;2023-01-09T17:34:25;3.27;;;2.23;;
32365;SDS011;18837;46.832;16.838;2023-01-09T17:36:51;2.63;;;2.10;;
32365;SDS011;18837;46.832;16.838;2023-01-09T17:39:19;2.37;;;2.13;;
32365;SDS011;18837;46.832;16.838;2023-01-09T17:41:46;2.93;;;2.00;;
32365;SDS011;18837;46.832;16.838;2023-01-09T17:44:25;2.83;;;2.33;;
32365;SDS011;18837;46.832;16.838;2023-01-09T17:46:51;3.00;;;2.07;;
32365;SDS011;18837;46.832;16.838;2023-01-09T17:49:18;2.60;;;1.93;;
32365;SDS011;18837;46.832;16.838;2023-01-09T17:51:45;3.80;;;1.90;;
32365;SDS011;18837;46.832;16.838;2023-01-09T17:54:11;2.53;;;2.00;;
32365;SDS011;18837;46.832;16.838;2023-01-09T17:56:37;2.47;;;1.97;;
32365;SDS011;18837;46.832;16.838;2023-01-09T17:59:06;2.30;;;2.03;;
32365;SDS011;18837;46.832;16.838;2023-01-09T18:07:35;3.17;;;2.40;;
32365;SDS011;18837;46.832;16.838;2023-01-09T18:10:01;3.17;;;2.20;;
32365;SDS011;18837;46.832;16.838;2023-01-09T18:12:27;2.40;;;2.00;;
32365;SDS011;18837;46.832;16.838;2023-01-09T18:14:53;3.50;;;2.30;;
32365;SDS011;18837;46.832;16.838;2023-01-09T18:17:18;3.10;;;2.43;;
32365;SDS011;18837;46.832;16.838;2023-01-09T18:19:49;3.73;;;2.50;;
32365;SDS011;18837;46.832;16.838;2023-01-09T18:22:15;4.40;;;2.70;;
32365;SDS011;18837;46.832;16.838;2023-01-09T18:24:41;2.47;;;2.07;;
32365;SDS011;18837;46.832;16.838;2023-01-09T18:27:07;3.43;;;2.43;;
32365;SDS011;18837;46.832;16.838;2023-01-09T18:29:33;2.80;;;2.40;;
32365;SDS011;18837;46.832;16.838;2023-01-09T18:31:58;2.53;;;2.30;;
32365;SDS011;18837;46.832;16.838;2023-01-09T18:34:36;3.50;;;2.43;;
32365;SDS011;18837;46.832;16.838;2023-01-09T18:37:20;3.97;;;1.93;;
32365;SDS011;18837;46.832;16.838;2023-01-09T18:39:57;2.80;;;2.10;;
32365;SDS011;18837;46.832;16.838;2023-01-09T18:42:23;3.00;;;2.33;;
32365;SDS011;18837;46.832;16.838;2023-01-09T18:44:49;3.00;;;2.10;;
32365;SDS011;18837;46.832;16.838;2023-01-09T18:47:15;3.13;;;2.10;;
32365;SDS011;18837;46.832;16.838;2023-01-09T18:49:40;4.43;;;2.10;;
32365;SDS011;18837;46.832;16.838;2023-01-09T18:52:06;2.17;;;1.97;;
32365;SDS011;18837;46.832;16.838;2023-01-09T18:54:38;1.97;;;1.80;;
32365;SDS011;18837;46.832;16.838;2023-01-09T18:57:06;3.17;;;2.17;;
32365;SDS011;18837;46.832;16.838;2023-01-09T18:59:32;2.07;;;1.77;;
32365;SDS011;18837;46.832;16.838;2023-01-09T19:01:58;1.90;;;1.70;;
32365;SDS011;18837;46.832;16.838;2023-01-09T19:04:23;1.97;;;1.73;;
32365;SDS011;18837;46.832;16.838;2023-01-09T19:06:49;2.70;;;2.00;;